EDT,Max TemperatureF,Mean TemperatureF,Min TemperatureF,Max Dew PointF,MeanDew PointF,Min DewpointF,Max Humidity, Mean Humidity, Min Humidity, Max Sea Level PressureIn, Mean Sea Level PressureIn, Min Sea Level PressureIn, Max VisibilityMiles, Mean VisibilityMiles, Min VisibilityMiles, Max Wind SpeedMPH, Mean Wind SpeedMPH, Max Gust SpeedMPH,PrecipitationIn, CloudCover, Events, WindDirDegrees
2013-6-1,92,79,66,68,65,62,87,63,38,29.99,29.93,29.88,10,10,9,22,10,25,0.00,2,,183
2013-6-2,87,78,68,70,67,65,87,69,51,29.88,29.80,29.73,10,9,1,22,11,28,0.31,4,Rain-Thunderstorm,181
2013-6-3,81,70,59,66,62,39,100,73,46,29.88,29.82,29.78,10,7,1,16,5,22,1.13,7,Rain-Thunderstorm,297
2013-6-4,72,62,52,45,41,35,59,47,35,30.10,29.97,29.89,10,10,10,21,11,28,0.00,1,,312
2013-6-5,76,63,50,48,45,42,77,55,33,30.21,30.14,30.09,10,10,10,15,6,18,0.00,5,,203
2013-6-6,72,61,50,57,52,47,90,69,47,30.18,30.13,30.08,10,10,8,17,6,23,0.12,7,Rain,154
2013-6-7,59,57,54,57,55,52,100,90,80,30.06,29.92,29.77,10,6,2,18,8,23,2.53,8,Rain,17
2013-6-8,78,65,52,59,55,51,93,74,54,30.03,29.78,29.63,10,7,2,18,9,25,0.50,7,Rain,331
2013-6-9,81,69,56,58,55,53,86,63,39,30.17,30.11,30.05,10,10,10,14,5,17,0.00,3,,311
2013-6-10,71,63,55,63,59,53,97,85,73,30.18,30.08,29.94,10,7,2,13,4,15,0.99,8,Rain,46
2013-6-11,70,64,58,64,60,55,97,85,73,29.91,29.67,29.56,10,6,1,17,6,22,0.93,7,Rain,4
2013-6-12,73,64,54,54,51,48,80,62,44,29.84,29.72,29.62,10,10,10,29,12,39,T,3,,311
2013-6-13,59,55,51,57,54,50,100,93,86,29.83,29.72,29.63,10,6,1,18,7,28,1.48,7,Rain,43
2013-6-14,75,63,51,56,51,48,100,72,44,29.82,29.71,29.61,10,9,5,18,7,22,0.57,6,Rain,344
2013-6-15,80,66,51,55,49,40,96,61,25,29.96,29.91,29.84,10,10,9,18,6,24,0.00,1,,306
2013-6-16,78,65,52,61,55,48,89,68,46,29.96,29.86,29.72,10,10,10,15,6,21,0.00,6,,202
2013-6-17,87,74,60,63,60,55,93,64,35,29.92,29.85,29.78,10,10,4,30,6,43,0.07,4,Rain-Thunderstorm,224
2013-6-18,81,69,57,64,62,55,97,78,58,29.94,29.90,29.84,10,9,2,24,6,31,0.39,7,Fog-Rain-Thunderstorm,10
2013-6-19,76,66,55,56,50,44,100,68,36,30.16,30.00,29.91,10,9,0,14,6,17,T,4,Rain,355
2013-6-20,81,65,48,56,49,44,86,58,30,30.27,30.23,30.17,10,10,10,15,6,24,0.00,2,,219
2013-6-21,85,72,58,62,58,53,86,65,43,30.26,30.23,30.19,10,10,10,14,8,26,0.00,3,,191
2013-6-22,85,74,62,60,57,54,78,56,34,30.23,30.19,30.12,10,10,10,17,9,28,0.00,5,,187
2013-6-23,91,78,64,69,64,56,79,58,36,30.16,30.09,30.02,10,10,10,21,10,25,0.00,4,,183
2013-6-24,94,82,70,71,68,63,93,67,41,30.03,29.98,29.91,10,10,9,22,7,28,0.05,5,Rain-Thunderstorm,229
2013-6-25,92,80,67,70,67,64,93,69,44,29.96,29.86,29.75,10,9,5,37,6,46,0.01,6,Rain-Thunderstorm,208
2013-6-26,87,79,70,70,68,66,97,76,55,29.82,29.78,29.75,10,10,8,17,5,21,0.00,5,,239
2013-6-27,83,75,67,72,69,66,100,83,65,29.83,29.76,29.66,10,5,0,13,5,16,1.54,7,Rain-Thunderstorm,106
2013-6-28,83,77,70,72,69,66,97,81,65,29.66,29.52,29.46,10,9,2,22,10,28,0.17,7,Rain-Thunderstorm,165
2013-6-29,85,78,70,70,68,66,93,74,55,29.71,29.57,29.49,10,8,2,20,10,25,0.00,5,,185
2013-6-30,87,79,71,71,70,69,93,74,55,29.92,29.83,29.72,10,9,5,18,9,24,T,7,,175